createdAt,value
2019-04-04T00:01:06.273Z,60.45
2019-04-04T00:03:34.986Z,60.62
2019-04-04T00:06:03.689Z,60.66
2019-04-04T00:08:32.522Z,61.07
2019-04-04T00:11:01.437Z,61.07
2019-04-04T00:13:30.187Z,61.36
2019-04-04T00:15:58.895Z,61.06
2019-04-04T00:18:28.034Z,61.78
2019-04-04T00:20:57.098Z,61.85
2019-04-04T00:23:25.814Z,62.10
2019-04-04T00:25:54.578Z,61.94
2019-04-04T00:28:23.289Z,62.40
2019-04-04T00:30:51.993Z,62.34
2019-04-04T00:33:20.730Z,62.05
2019-04-04T00:35:49.427Z,62.15
2019-04-04T00:38:18.170Z,62.52
2019-04-04T00:40:46.877Z,62.85
2019-04-04T00:43:15.577Z,63.41
2019-04-04T00:45:44.281Z,63.55
2019-04-04T00:48:12.982Z,64.17
2019-04-04T00:50:41.737Z,64.59
2019-04-04T00:53:11.788Z,64.03
2019-04-04T00:55:40.868Z,64.66
2019-04-04T00:58:09.648Z,65.21
2019-04-04T01:00:38.359Z,65.38
2019-04-04T01:03:07.067Z,65.25
2019-04-04T01:05:35.785Z,65.48
2019-04-04T01:08:06.644Z,65.69
2019-04-04T01:10:34.968Z,65.83
2019-04-04T01:13:03.684Z,65.98
2019-04-04T01:15:32.389Z,66.47
2019-04-04T01:18:07.506Z,66.29
2019-04-04T01:20:36.208Z,66.17
2019-04-04T01:23:05.493Z,66.22
2019-04-04T01:25:34.199Z,66.01
2019-04-04T01:28:02.912Z,65.92
2019-04-04T01:30:31.627Z,65.70
2019-04-04T01:33:00.334Z,65.74
2019-04-04T01:35:29.098Z,66.10
2019-04-04T01:37:58.125Z,65.84
2019-04-04T01:40:27.495Z,66.05
2019-04-04T01:42:56.417Z,65.82
2019-04-04T01:45:25.120Z,66.64
2019-04-04T01:47:53.828Z,66.17
2019-04-04T01:50:23.302Z,66.59
2019-04-04T01:52:52.258Z,66.94
2019-04-04T01:55:20.965Z,66.66
2019-04-04T01:57:49.672Z,66.50
2019-04-04T02:00:18.674Z,66.91
2019-04-04T02:02:47.413Z,67.10
2019-04-04T02:05:16.111Z,66.90
2019-04-04T02:07:44.832Z,66.98
2019-04-04T02:10:14.049Z,67.05
2019-04-04T02:12:42.760Z,66.96
2019-04-04T02:15:14.276Z,66.82
2019-04-04T02:17:42.545Z,66.88
2019-04-04T02:20:11.341Z,66.85
2019-04-04T02:22:40.095Z,66.83
2019-04-04T02:25:08.922Z,66.74
2019-04-04T02:27:38.362Z,66.55
2019-04-04T02:30:08.989Z,66.54
2019-04-04T02:32:37.651Z,66.52
2019-04-04T02:35:10.175Z,66.44
2019-04-04T02:37:38.001Z,66.32
2019-04-04T02:40:08.797Z,66.25
2019-04-04T02:42:38.980Z,66.18
2019-04-04T02:45:07.786Z,66.22
2019-04-04T02:47:36.503Z,66.14
2019-04-04T02:50:07.127Z,66.06
2019-04-04T02:52:35.852Z,66.10
2019-04-04T02:55:05.364Z,65.95
2019-04-04T02:57:34.077Z,66.08
2019-04-04T03:00:05.132Z,66.10
2019-04-04T03:02:36.231Z,66.21
2019-04-04T03:05:08.114Z,66.43
2019-04-04T03:07:36.850Z,66.43
2019-04-04T03:10:06.762Z,66.67
2019-04-04T03:12:35.459Z,66.69
2019-04-04T03:15:06.344Z,66.66
2019-04-04T03:17:35.953Z,66.91
2019-04-04T03:20:07.120Z,66.62
2019-04-04T03:22:35.819Z,66.75
2019-04-04T03:25:06.392Z,66.97
2019-04-04T03:27:35.100Z,66.91
2019-04-04T03:30:04.514Z,66.83
2019-04-04T03:32:33.247Z,66.73
2019-04-04T03:35:02.167Z,66.93
2019-04-04T03:37:30.945Z,67.23
2019-04-04T03:40:05.602Z,67.20
2019-04-04T03:42:34.314Z,67.30
2019-04-04T03:45:09.432Z,67.41
2019-04-04T03:47:38.147Z,68.77
2019-04-04T03:50:07.448Z,69.09
2019-04-04T03:52:36.164Z,69.09
2019-04-04T03:55:06.877Z,69.42
2019-04-04T03:57:35.641Z,69.83
2019-04-04T04:00:07.464Z,69.92
2019-04-04T04:02:36.440Z,70.38
2019-04-04T04:05:09.422Z,70.61
2019-04-04T04:07:38.140Z,70.76
2019-04-04T04:10:08.845Z,70.67
2019-04-04T04:12:37.562Z,70.28
2019-04-04T04:15:06.577Z,70.16
2019-04-04T04:17:36.423Z,69.91
2019-04-04T04:20:06.492Z,69.76
2019-04-04T04:22:35.231Z,69.56
2019-04-04T04:25:11.934Z,69.53
2019-04-04T04:27:40.666Z,69.46
2019-04-04T04:30:09.558Z,69.29
2019-04-04T04:32:38.247Z,68.92
2019-04-04T04:35:09.601Z,68.27
2019-04-04T04:37:38.677Z,68.01
2019-04-04T04:40:13.640Z,67.65
2019-04-04T04:42:38.905Z,67.32
2019-04-04T04:45:11.062Z,67.16
2019-04-04T04:47:38.837Z,66.95
2019-04-04T04:50:09.629Z,66.48
2019-04-04T04:52:38.119Z,66.18
2019-04-04T04:55:06.851Z,65.50
2019-04-04T04:57:38.508Z,64.29
2019-04-04T05:00:10.323Z,63.33
2019-04-04T05:02:39.039Z,62.12
2019-04-04T05:05:10.188Z,61.26
2019-04-04T05:07:39.143Z,59.81
2019-04-04T05:10:08.845Z,58.94
2019-04-04T05:12:37.579Z,58.19
2019-04-04T05:15:07.688Z,56.94
2019-04-04T05:17:36.455Z,55.85
2019-04-04T05:20:07.169Z,54.57
2019-04-04T05:22:35.872Z,53.10
2019-04-04T05:25:12.819Z,52.30
2019-04-04T05:27:41.546Z,51.65
2019-04-04T05:30:10.561Z,51.66
2019-04-04T05:32:39.288Z,51.56
2019-04-04T05:35:09.675Z,51.64
2019-04-04T05:37:39.006Z,51.76
2019-04-04T05:40:08.718Z,52.13
2019-04-04T05:42:37.420Z,52.90
2019-04-04T05:45:08.256Z,52.99
2019-04-04T05:47:36.944Z,53.44
2019-04-04T05:50:09.023Z,54.82
2019-04-04T05:52:37.754Z,55.36
2019-04-04T05:55:09.914Z,55.32
2019-04-04T05:57:37.158Z,55.13
2019-04-04T06:00:09.367Z,55.21
2019-04-04T06:02:38.085Z,54.67
2019-04-04T06:05:07.532Z,54.86
2019-04-04T06:07:37.093Z,56.73
2019-04-04T06:10:07.351Z,56.83
2019-04-04T06:12:37.513Z,56.27
2019-04-04T06:15:07.863Z,56.45
2019-04-04T06:17:38.753Z,55.71
2019-04-04T06:20:09.541Z,55.00
2019-04-04T06:22:38.243Z,56.10
2019-04-04T06:25:20.563Z,57.06
2019-04-04T06:27:49.260Z,57.02
2019-04-04T06:30:18.125Z,56.88
2019-04-04T06:32:48.435Z,56.16
2019-04-04T06:35:17.147Z,55.40
2019-04-04T06:37:46.321Z,55.34
2019-04-04T06:40:15.550Z,55.77
2019-04-04T06:42:44.256Z,55.73
2019-04-04T06:45:15.132Z,55.72
2019-04-04T06:47:43.441Z,55.54
2019-04-04T06:50:12.747Z,55.62
2019-04-04T06:52:41.462Z,55.98
2019-04-04T06:55:10.183Z,56.38
2019-04-04T06:57:38.944Z,56.83
2019-04-04T07:00:09.616Z,57.54
2019-04-04T07:02:38.319Z,57.42
2019-04-04T07:05:10.642Z,57.39
2019-04-04T07:07:43.114Z,58.63
2019-04-04T07:10:09.877Z,58.50
2019-04-04T07:12:38.839Z,58.17
2019-04-04T07:15:12.488Z,57.42
2019-04-04T07:17:41.363Z,57.60
2019-04-04T07:20:10.264Z,57.18
2019-04-04T07:22:38.967Z,56.32
2019-04-04T07:25:08.247Z,55.79
2019-04-04T07:27:36.957Z,54.92
2019-04-04T07:30:08.397Z,55.14
2019-04-04T07:32:38.944Z,54.92
2019-04-04T07:35:07.644Z,54.80
2019-04-04T07:37:36.397Z,54.52
2019-04-04T07:40:06.606Z,54.27
2019-04-04T07:42:35.316Z,54.15
2019-04-04T07:45:08.721Z,53.88
2019-04-04T07:47:37.424Z,53.35
2019-04-04T07:50:06.433Z,53.69
2019-04-04T07:52:35.198Z,54.02
2019-04-04T07:55:04.004Z,54.04
2019-04-04T07:57:32.708Z,54.01
2019-04-04T08:00:09.644Z,54.01
2019-04-04T08:02:38.339Z,54.97
2019-04-04T08:05:09.297Z,55.02
2019-04-04T08:07:38.001Z,54.28
2019-04-04T08:10:19.604Z,54.04
2019-04-04T08:12:37.639Z,53.80
2019-04-04T08:15:07.360Z,53.54
2019-04-04T08:17:36.124Z,53.54
2019-04-04T08:20:06.337Z,53.37
2019-04-04T08:22:35.293Z,52.98
2019-04-04T08:25:05.142Z,54.13
2019-04-04T08:27:33.851Z,54.93
2019-04-04T08:30:02.563Z,55.55
2019-04-04T08:32:31.288Z,55.22
2019-04-04T08:35:00.002Z,55.52
2019-04-04T08:37:28.759Z,55.24
2019-04-04T08:39:57.477Z,54.54
2019-04-04T08:42:26.198Z,55.11
2019-04-04T08:44:54.918Z,55.00
2019-04-04T08:47:23.630Z,55.55
2019-04-04T08:49:52.416Z,55.07
2019-04-04T08:52:21.140Z,54.13
2019-04-04T08:54:49.858Z,54.55
2019-04-04T08:57:18.620Z,54.51
2019-04-04T08:59:47.329Z,54.26
2019-04-04T09:02:16.045Z,53.87
2019-04-04T09:04:44.854Z,54.20
2019-04-04T09:07:13.557Z,53.77
2019-04-04T09:09:42.350Z,54.39
2019-04-04T09:12:11.076Z,54.50
2019-04-04T09:14:41.207Z,54.50
2019-04-04T09:17:10.427Z,54.35
2019-04-04T09:19:39.140Z,54.67
2019-04-04T09:22:10.776Z,54.03
2019-04-04T09:24:38.293Z,53.54
2019-04-04T09:27:06.999Z,54.22
2019-04-04T09:29:35.754Z,53.74
2019-04-04T09:32:04.469Z,53.58
2019-04-04T09:34:33.186Z,53.63
2019-04-04T09:37:08.725Z,53.66
2019-04-04T09:39:36.291Z,53.40
2019-04-04T09:42:09.371Z,53.33
2019-04-04T09:44:38.079Z,52.83
2019-04-04T09:47:06.797Z,52.64
2019-04-04T09:49:35.560Z,52.84
2019-04-04T09:52:04.266Z,52.63
2019-04-04T09:54:32.974Z,52.42
2019-04-04T09:57:05.912Z,52.79
2019-04-04T09:59:34.619Z,52.62
2019-04-04T10:02:05.920Z,52.34
2019-04-04T10:04:34.634Z,52.60
2019-04-04T10:07:10.481Z,53.98
2019-04-04T10:09:39.210Z,53.46
2019-04-04T10:12:07.922Z,52.79
2019-04-04T10:14:36.643Z,51.90
2019-04-04T10:17:05.354Z,51.40
2019-04-04T10:19:34.111Z,52.14
2019-04-04T10:22:02.821Z,53.34
2019-04-04T10:24:31.544Z,52.63
2019-04-04T10:27:06.544Z,52.70
2019-04-04T10:29:35.252Z,52.73
2019-04-04T10:32:06.746Z,51.94
2019-04-04T10:34:35.466Z,51.84
2019-04-04T10:37:04.188Z,51.89
2019-04-04T10:39:32.974Z,51.44
2019-04-04T10:42:01.708Z,51.28
2019-04-04T10:44:30.461Z,50.79
2019-04-04T10:46:59.170Z,50.72
2019-04-04T10:49:27.886Z,51.06
2019-04-04T10:51:56.608Z,51.26
2019-04-04T10:54:25.326Z,50.96
2019-04-04T10:56:54.105Z,50.63
2019-04-04T10:59:22.818Z,51.18
2019-04-04T11:01:51.529Z,50.74
2019-04-04T11:04:20.248Z,50.42
2019-04-04T11:06:48.962Z,50.06
2019-04-04T11:09:17.714Z,49.34
2019-04-04T11:11:46.422Z,50.09
2019-04-04T11:14:15.134Z,49.79
2019-04-04T11:16:43.849Z,49.69
2019-04-04T11:19:12.565Z,49.16
2019-04-04T11:21:41.309Z,49.17
2019-04-04T11:24:10.023Z,49.57
2019-04-04T11:26:38.729Z,49.35
2019-04-04T11:29:09.073Z,49.18
2019-04-04T11:31:37.781Z,49.04
2019-04-04T11:34:06.673Z,48.91
2019-04-04T11:36:35.391Z,48.89
2019-04-04T11:39:05.702Z,48.57
2019-04-04T11:41:34.459Z,49.47
2019-04-04T11:44:03.172Z,49.63
2019-04-04T11:46:31.888Z,49.32
2019-04-04T11:49:06.049Z,48.61
2019-04-04T11:51:34.758Z,48.72
2019-04-04T11:54:06.265Z,48.45
2019-04-04T11:56:34.973Z,49.02
2019-04-04T11:59:03.683Z,48.82
2019-04-04T12:01:33.960Z,48.54
2019-04-04T12:04:02.679Z,48.26
2019-04-04T12:06:31.429Z,48.46
2019-04-04T12:09:06.585Z,48.97
2019-04-04T12:11:35.297Z,49.04
2019-04-04T12:14:06.106Z,48.23
2019-04-04T12:16:34.820Z,48.59
2019-04-04T12:19:03.531Z,48.98
2019-04-04T12:21:32.259Z,48.40
2019-04-04T12:24:00.966Z,48.55
2019-04-04T12:26:29.712Z,48.88
2019-04-04T12:28:58.431Z,48.90
2019-04-04T12:31:27.145Z,48.64
2019-04-04T12:33:55.912Z,48.09
2019-04-04T12:36:25.188Z,47.98
2019-04-04T12:38:53.967Z,48.48
2019-04-04T12:41:22.698Z,48.56
2019-04-04T12:43:51.407Z,48.24
2019-04-04T12:46:20.118Z,48.19
2019-04-04T12:48:48.881Z,48.05
2019-04-04T12:51:17.602Z,47.75
2019-04-04T12:53:46.298Z,47.78
2019-04-04T12:56:15.087Z,47.92
2019-04-04T12:58:43.770Z,48.05
2019-04-04T13:01:12.478Z,47.97
2019-04-04T13:03:41.250Z,47.98
2019-04-04T13:06:09.955Z,48.17
2019-04-04T13:08:38.661Z,48.50
2019-04-04T13:11:07.432Z,47.98
2019-04-04T13:13:38.212Z,48.57
2019-04-04T13:16:06.579Z,48.62
2019-04-04T13:18:35.296Z,48.43
2019-04-04T13:21:04.006Z,47.88
2019-04-04T13:23:32.801Z,47.64
2019-04-04T13:26:01.463Z,47.71
2019-04-04T13:28:30.174Z,47.47
2019-04-04T13:31:08.686Z,47.90
2019-04-04T13:33:37.402Z,47.76
2019-04-04T13:36:07.971Z,46.72
2019-04-04T13:38:36.687Z,46.20
2019-04-04T13:41:05.411Z,46.31
2019-04-04T13:43:34.114Z,45.98
2019-04-04T13:46:02.823Z,45.56
2019-04-04T13:48:31.585Z,45.85
2019-04-04T13:51:00.298Z,45.31
2019-04-04T13:53:29.006Z,45.92
2019-04-04T13:55:59.105Z,45.87
2019-04-04T13:58:28.014Z,45.68
2019-04-04T14:00:56.761Z,45.87
2019-04-04T14:03:25.471Z,46.03
2019-04-04T14:05:54.171Z,45.71
2019-04-04T14:08:22.887Z,45.60
2019-04-04T14:10:58.141Z,45.17
2019-04-04T14:13:22.079Z,45.49
2019-04-04T14:15:50.787Z,45.49
2019-04-04T14:18:22.381Z,45.70
2019-04-04T14:21:02.866Z,45.59
2019-04-04T14:23:23.113Z,45.16
2019-04-04T14:25:52.054Z,45.09
2019-04-04T14:28:21.067Z,45.14
2019-04-04T14:30:49.774Z,45.47
2019-04-04T14:33:18.602Z,45.62
2019-04-04T14:35:47.309Z,45.79
2019-04-04T14:38:16.058Z,45.89
2019-04-04T14:40:44.761Z,45.98
2019-04-04T14:43:13.474Z,46.13
2019-04-04T14:45:42.200Z,45.91
2019-04-04T14:48:11.612Z,45.85
2019-04-04T14:50:40.553Z,45.58
2019-04-04T14:53:09.259Z,45.89
2019-04-04T14:55:37.969Z,46.07
2019-04-04T14:58:06.810Z,45.99
2019-04-04T15:00:35.521Z,46.07
2019-04-04T15:03:06.293Z,45.93
2019-04-04T15:05:35.001Z,46.16
2019-04-04T15:08:03.728Z,46.17
2019-04-04T15:10:32.432Z,46.36
2019-04-04T15:13:07.019Z,46.11
2019-04-04T15:15:35.879Z,46.23
2019-04-04T15:18:04.614Z,46.30
2019-04-04T15:20:33.318Z,46.57
2019-04-04T15:23:06.111Z,46.47
2019-04-04T15:25:35.324Z,46.49
2019-04-04T15:28:06.173Z,46.65
2019-04-04T15:30:34.896Z,46.79
2019-04-04T15:33:09.001Z,47.16
2019-04-04T15:35:37.710Z,47.33
2019-04-04T15:38:06.420Z,47.38
2019-04-04T15:40:35.134Z,47.61
2019-04-04T15:43:03.841Z,47.57
2019-04-04T15:45:32.603Z,47.48
2019-04-04T15:48:01.322Z,47.57
2019-04-04T15:50:30.031Z,47.39
2019-04-04T15:53:06.143Z,47.24
2019-04-04T15:55:34.963Z,46.70
2019-04-04T15:58:06.191Z,46.68
2019-04-04T16:00:34.901Z,46.63
2019-04-04T16:03:03.616Z,46.86
2019-04-04T16:05:32.476Z,46.83
2019-04-04T16:08:01.181Z,46.74
2019-04-04T16:10:29.975Z,46.33
2019-04-04T16:15:36.443Z,47.10
2019-04-04T16:18:05.600Z,47.80
2019-04-04T16:20:34.419Z,47.93
2019-04-04T16:23:03.127Z,48.30
2019-04-04T16:25:31.885Z,48.66
2019-04-04T16:28:07.521Z,48.36
2019-04-04T16:30:36.233Z,48.75
2019-04-04T16:33:08.175Z,48.87
2019-04-04T16:35:36.932Z,49.25
2019-04-04T16:38:05.615Z,49.89
2019-04-04T16:40:34.337Z,49.63
2019-04-04T16:43:03.130Z,50.24
2019-04-04T16:45:31.966Z,50.12
2019-04-04T16:48:00.674Z,49.65
2019-04-04T16:50:29.394Z,49.51
2019-04-04T16:52:58.143Z,49.60
2019-04-04T16:55:26.854Z,49.42
2019-04-04T16:57:55.572Z,49.27
2019-04-04T17:00:25.966Z,49.24
2019-04-04T17:02:54.677Z,49.30
2019-04-04T17:05:23.427Z,49.36
2019-04-04T17:07:52.138Z,49.54
2019-04-04T17:10:20.853Z,49.37
2019-04-04T17:12:50.009Z,49.23
2019-04-04T17:15:18.730Z,49.47
2019-04-04T17:17:47.487Z,49.81
2019-04-04T17:20:16.212Z,49.77
2019-04-04T17:22:44.926Z,50.13
2019-04-04T17:25:15.955Z,50.22
2019-04-04T17:27:44.080Z,50.64
2019-04-04T17:30:13.844Z,50.83
2019-04-04T17:32:42.569Z,51.12
2019-04-04T17:35:11.842Z,51.29
2019-04-04T17:37:41.437Z,51.44
2019-04-04T17:40:11.184Z,51.59
2019-04-04T17:42:39.927Z,51.57
2019-04-04T17:45:10.348Z,51.88
2019-04-04T17:47:39.762Z,51.95
2019-04-04T17:50:10.775Z,52.24
2019-04-04T17:52:40.128Z,52.15
2019-04-04T17:55:10.279Z,52.38
2019-04-04T17:57:39.005Z,52.35
2019-04-04T18:00:09.617Z,52.40
2019-04-04T18:02:38.379Z,53.08
2019-04-04T18:05:09.911Z,53.15
2019-04-04T18:07:38.625Z,53.26
2019-04-04T18:10:09.145Z,53.19
2019-04-04T18:12:40.607Z,53.36
2019-04-04T18:15:09.767Z,54.09
2019-04-04T18:17:38.482Z,54.56
2019-04-04T18:20:08.898Z,54.83
2019-04-04T18:22:37.847Z,55.07
2019-04-04T18:25:08.061Z,55.50
2019-04-04T18:27:36.771Z,56.00
2019-04-04T18:30:10.349Z,56.15
2019-04-04T18:32:39.061Z,56.61
2019-04-04T18:35:09.364Z,56.84
2019-04-04T18:37:38.183Z,57.11
2019-04-04T18:40:08.189Z,57.47
2019-04-04T18:42:36.949Z,57.67
2019-04-04T18:45:08.859Z,57.70
2019-04-04T18:47:37.578Z,57.72
2019-04-04T18:50:09.161Z,57.84
2019-04-04T18:52:37.874Z,58.20
2019-04-04T18:55:18.994Z,58.35
2019-04-04T18:57:38.860Z,58.71
2019-04-04T19:00:12.382Z,59.07
2019-04-04T19:02:42.041Z,59.22
2019-04-04T19:05:12.140Z,59.46
2019-04-04T19:07:40.860Z,59.49
2019-04-04T19:10:10.940Z,59.74
2019-04-04T19:12:39.660Z,59.94
2019-04-04T19:15:08.807Z,59.72
2019-04-04T19:17:37.522Z,59.80
2019-04-04T19:20:10.008Z,59.98
2019-04-04T19:22:38.490Z,60.00
2019-04-04T19:25:08.094Z,60.18
2019-04-04T19:27:36.850Z,60.22
2019-04-04T19:30:09.905Z,60.46
2019-04-04T19:32:38.614Z,60.59
2019-04-04T19:35:08.375Z,60.85
2019-04-04T19:37:37.079Z,61.00
2019-04-04T19:40:10.530Z,61.00
2019-04-04T19:42:39.240Z,61.01
2019-04-04T19:45:09.937Z,61.45
2019-04-04T19:47:38.659Z,61.83
2019-04-04T19:50:11.539Z,62.27
2019-04-04T19:52:40.289Z,62.35
2019-04-04T19:55:09.397Z,62.43
2019-04-04T19:57:38.110Z,62.65
2019-04-04T20:00:11.096Z,62.82
2019-04-04T20:02:39.804Z,62.95
2019-04-04T20:05:09.216Z,62.97
2019-04-04T20:07:37.936Z,62.88
2019-04-04T20:10:07.378Z,62.73
2019-04-04T20:12:36.102Z,63.00
2019-04-04T20:15:09.913Z,63.11
2019-04-04T20:17:38.626Z,63.03
2019-04-04T20:20:09.355Z,63.11
2019-04-04T20:22:38.068Z,63.27
2019-04-04T20:25:07.869Z,63.38
2019-04-04T20:27:36.587Z,63.79
2019-04-04T20:30:10.239Z,64.12
2019-04-04T20:32:38.992Z,64.03
2019-04-04T20:35:08.397Z,63.94
2019-04-04T20:37:37.109Z,63.93
2019-04-04T20:40:07.120Z,64.37
2019-04-04T20:42:35.824Z,64.28
2019-04-04T20:45:06.458Z,64.24
2019-04-04T20:47:35.243Z,64.64
2019-04-04T20:50:05.904Z,64.83
2019-04-04T20:52:34.629Z,65.23
2019-04-04T20:55:03.405Z,65.15
2019-04-04T20:57:32.178Z,65.74
2019-04-04T21:00:00.892Z,65.91
2019-04-04T21:02:29.593Z,66.21
2019-04-04T21:04:58.333Z,66.62
2019-04-04T21:07:27.037Z,66.58
2019-04-04T21:09:55.800Z,66.77
2019-04-04T21:12:24.510Z,67.70
2019-04-04T21:14:53.221Z,67.36
2019-04-04T21:17:21.965Z,67.26
2019-04-04T21:19:50.675Z,67.10
2019-04-04T21:22:27.316Z,67.12
2019-04-04T21:24:49.841Z,66.89
2019-04-04T21:27:18.939Z,67.15
2019-04-04T21:29:47.849Z,67.61
2019-04-04T21:32:16.557Z,67.46
2019-04-04T21:34:45.266Z,67.42
2019-04-04T21:37:14.019Z,67.43
2019-04-04T21:39:42.722Z,67.88
2019-04-04T21:42:11.430Z,68.24
2019-04-04T21:44:40.142Z,68.68
2019-04-04T21:47:08.848Z,69.16
2019-04-04T21:49:37.609Z,69.49
2019-04-04T21:52:06.316Z,69.46
2019-04-04T21:54:35.022Z,69.92
2019-04-04T21:57:06.026Z,69.82
2019-04-04T21:59:34.756Z,70.14
2019-04-04T22:02:07.391Z,70.43
2019-04-04T22:04:36.096Z,70.74
2019-04-04T22:07:05.903Z,70.76
2019-04-04T22:09:34.612Z,70.89
2019-04-04T22:12:03.417Z,71.15
2019-04-04T22:14:32.142Z,71.27
2019-04-04T22:17:06.839Z,71.28
2019-04-04T22:19:35.605Z,71.43
2019-04-04T22:22:04.418Z,71.58
2019-04-04T22:24:33.127Z,71.29
2019-04-04T22:27:09.333Z,71.57
2019-04-04T22:29:38.041Z,71.59
2019-04-04T22:32:06.801Z,71.50
2019-04-04T22:34:35.510Z,71.34
2019-04-04T22:37:04.213Z,71.02
2019-04-04T22:39:32.972Z,71.17
2019-04-04T22:42:01.636Z,71.23
2019-04-04T22:44:34.903Z,71.56
2019-04-04T22:47:00.823Z,71.89
2019-04-04T22:49:29.540Z,71.93
2019-04-04T22:51:58.263Z,72.36
2019-04-04T22:54:26.973Z,72.60
2019-04-04T22:56:55.724Z,72.67
2019-04-04T22:59:24.439Z,72.75
2019-04-04T23:01:53.144Z,73.01
2019-04-04T23:04:21.917Z,72.95
2019-04-04T23:06:50.623Z,73.24
2019-04-04T23:09:19.404Z,73.15
2019-04-04T23:11:48.125Z,72.75
2019-04-04T23:14:16.829Z,72.45
2019-04-04T23:16:45.599Z,72.35
2019-04-04T23:19:14.306Z,72.12
2019-04-04T23:21:43.011Z,72.22
2019-04-04T23:24:11.758Z,72.20
2019-04-04T23:26:40.467Z,72.57
2019-04-04T23:29:09.174Z,72.53
2019-04-04T23:31:37.964Z,72.65
2019-04-04T23:34:06.665Z,72.58
2019-04-04T23:36:35.707Z,72.58
2019-04-04T23:39:06.909Z,72.44
2019-04-04T23:41:35.617Z,72.38
2019-04-04T23:44:06.848Z,72.19
2019-04-04T23:46:35.553Z,72.17
2019-04-04T23:49:07.595Z,72.28
2019-04-04T23:51:36.309Z,72.46
2019-04-04T23:54:05.014Z,72.69
2019-04-04T23:56:33.730Z,72.83
2019-04-04T23:59:02.437Z,72.73
